Archival Weather

Pocono Mountains Rgnl

Mount Pocono, Pennsylvania (KMPO)

Report from: Tuesday, May 21, 2024 1:53 PM EDT
Current time: Monday, July 22, 2024 6:00 AM EDT

Current weather – Weather history – Daily summaries
Weather forecast

Temperature26.7°C (80.1°F)
Heat index27.0°C (80.6°F)
Dew point12.2°C (54.0°F)
Winds 10 kts (5.1 m/s, 11.5 mph) South (190°)
Visibility10 mi. (16.1 km)
Clouds Scattered clouds 6,000 ft. (1,829 m)
Altimeter30.00 in.Hg (1016 mB)
Relative humidity41 %
Density altitude1,495 ft. (456 m)
Sea-level pressure101.5 kPa (1015 mB, 29.97 in.Hg)
Max temp last 6 hours26.7°C (80.1°F)
Min temp last 6 hours18.3°C (64.9°F)
Remarks Fully automated report
Automated weather observing station with precipitation discriminator
Pressure falling more quickly
Flight conditions Visual Meteorological Conditions
Raw dataKMPO 211753Z AUTO 19010KT 10SM SCT060 27/12 A3000 RMK AO2 SLP149 T02670122 10267 20183 58012
An error has occurred. This application may no longer respond until reloaded. Reload 🗙